Terminal Aerodrome Forecast
Issued by NWS Cleveland, OH

Home | Current Version | Previous Version | Graphics & Text | Print | Product List | Glossary Off
Versions: 1 2 3 4 5 6 7 8 9 10 11 12 13 14 15 16 17 18 19 20 21 22 23

000
FTUS41 KCLE 291128
TAFERI
TAF
KERI 291128Z 2912/3012 09003KT P6SM SCT050 BKN080 OVC100
      TEMPO 2912/2913 -SHRA
     FM291500 27007KT P6SM OVC250
     FM300000 16005KT P6SM -SHRA OVC100
     FM300300 13005KT 6SM -SHRA OVC050
     FM300500 13005KT 6SM -SHRA BR OVC025
     FM300900 16008KT P6SM OVC025=

USA.gov is the U.S. government's official web portal to all federal, state and local government web resources and services.